Time;durP1;ratioP1;P1;durP2;ratioP2;P2;SDS_P1;SDS_P2;PMS_P1;PMS_P2;Temp;Humidity;BMP_temperature;BMP_pressure;BME280_temperature;BME280_humidity;BME280_pressure;Samples;Min_cycle;Max_cycle;Signal;HPM_P1;HPM_P2
2022/06/27 05:50:09;;;;;;;;;2.33;1.00;;;;;19.69;100.00;99863.78;6270049;22;45917;-87
2022/06/27 05:52:34;;;;;;;;;2.00;2.00;;;;;19.69;100.00;99874.41;6303345;22;46078;-90
2022/06/27 05:55:00;;;;;;;;;2.00;2.00;;;;;19.71;100.00;99880.63;6273987;22;45373;-90
2022/06/27 05:57:27;;;;;;;;;2.00;2.00;;;;;19.74;100.00;99893.91;6274314;22;45212;-90
2022/06/27 05:59:55;;;;;;;;;4.33;2.00;;;;;19.80;100.00;99901.84;6274494;22;45219;-89
2022/06/27 06:02:21;;;;;;;;;3.33;3.33;;;;;19.85;100.00;99905.34;6301373;22;45480;-89
2022/06/27 06:04:47;;;;;;;;;3.67;2.00;;;;;19.92;100.00;99910.66;6301044;22;45626;-90
2022/06/27 06:07:13;;;;;;;;;2.33;2.33;;;;;19.96;100.00;99915.06;6273976;22;45406;-89
2022/06/27 06:09:39;;;;;;;;;2.00;2.00;;;;;19.95;100.00;99923.94;6301597;22;45318;-89
2022/06/27 06:12:06;;;;;;;;;2.00;2.00;;;;;19.95;100.00;99938.13;6274121;22;46472;-89
2022/06/27 06:14:32;;;;;;;;;1.00;1.00;;;;;19.98;100.00;99937.22;6302472;22;45294;-88
2022/06/27 06:16:58;;;;;;;;;2.00;2.00;;;;;19.99;100.00;99929.25;6273771;22;45253;-89
2022/06/27 06:19:23;;;;;;;;;1.00;1.00;;;;;20.00;100.00;99932.75;6273783;22;45285;-89
2022/06/27 06:21:49;;;;;;;;;5.00;2.00;;;;;19.98;100.00;99930.13;6302112;22;46002;-89
2022/06/27 06:24:14;;;;;;;;;1.00;1.00;;;;;20.03;100.00;99919.44;6275954;22;45897;-89
2022/06/27 06:26:41;;;;;;;;;1.33;1.33;;;;;20.08;100.00;99911.41;6275129;22;45255;-88
2022/06/27 06:29:14;;;;;;;;;1.00;1.00;;;;;20.10;100.00;99917.63;6302466;22;45486;-88
2022/06/27 06:31:43;;;;;;;;;2.00;2.00;;;;;20.13;100.00;99944.25;6305454;22;46717;-89
2022/06/27 06:34:10;;;;;;;;;4.00;2.00;;;;;20.18;100.00;99960.19;6303745;22;45403;-88
2022/06/27 06:36:37;;;;;;;;;2.00;2.00;;;;;20.27;100.00;99941.50;6304428;22;45320;-88
2022/06/27 06:39:03;;;;;;;;;2.00;2.00;;;;;20.36;100.00;99945.00;6277692;22;45705;-89
2022/06/27 06:41:29;;;;;;;;;5.00;3.00;;;;;20.36;100.00;99951.19;6301520;22;45384;-89
2022/06/27 06:43:54;;;;;;;;;1.00;1.00;;;;;20.36;100.00;99961.84;6302976;22;45245;-89
2022/06/27 06:46:19;;;;;;;;;1.67;1.67;;;;;20.36;100.00;99982.31;6273222;22;45427;-90
2022/06/27 06:48:45;;;;;;;;;2.00;2.00;;;;;20.38;100.00;99986.72;6273892;22;45334;-89
2022/06/27 06:51:12;;;;;;;;;1.00;1.00;;;;;20.42;100.00;99974.25;6273635;22;47310;-88
2022/06/27 06:53:37;;;;;;;;;2.00;1.00;;;;;20.52;100.00;99994.59;6305248;22;45495;-89
2022/06/27 06:56:05;;;;;;;;;1.00;1.00;;;;;20.63;100.00;99989.19;6273580;22;45327;-90
2022/06/27 06:58:30;;;;;;;;;2.00;2.00;;;;;20.74;100.00;99998.88;6300288;22;45305;-89
2022/06/27 07:00:56;;;;;;;;;2.67;2.67;;;;;20.90;100.00;100004.06;6272731;22;46998;-90
2022/06/27 07:03:22;;;;;;;;;2.00;2.00;;;;;21.04;100.00;100001.28;6302292;22;45293;-89
2022/06/27 07:05:48;;;;;;;;;3.00;3.00;;;;;21.17;100.00;99994.03;6273865;22;45302;-89
2022/06/27 07:08:13;;;;;;;;;2.00;2.00;;;;;21.29;100.00;100012.56;6274061;22;45243;-89
2022/06/27 07:10:40;;;;;;;;;3.00;3.00;;;;;21.42;100.00;100013.31;6302651;22;46465;-90
2022/06/27 07:13:06;;;;;;;;;2.33;2.33;;;;;21.48;100.00;100028.38;6301993;22;45547;-90
2022/06/27 07:15:33;;;;;;;;;3.33;3.33;;;;;21.48;100.00;100030.16;6299413;22;45328;-89
2022/06/27 07:18:00;;;;;;;;;2.00;2.00;;;;;21.43;100.00;100046.22;6301682;22;45614;-90
2022/06/27 07:20:26;;;;;;;;;2.33;2.00;;;;;21.36;100.00;100047.22;6300875;22;46444;-89
2022/06/27 07:22:52;;;;;;;;;2.00;2.00;;;;;21.23;100.00;100075.81;6302326;22;45426;-89
2022/06/27 07:25:19;;;;;;;;;3.00;2.00;;;;;21.04;100.00;100076.84;6273982;22;45469;-88
2022/06/27 07:27:46;;;;;;;;;3.00;3.00;;;;;20.94;100.00;100085.81;6297663;22;45515;-88
2022/06/27 07:30:13;;;;;;;;;2.00;2.00;;;;;20.87;100.00;100077.84;6300419;22;45419;-88
2022/06/27 07:32:39;;;;;;;;;2.00;2.00;;;;;20.83;100.00;100075.22;6301470;22;45332;-89
2022/06/27 07:35:09;;;;;;;;;2.33;1.33;;;;;20.81;100.00;100072.56;6299075;22;45298;-94
2022/06/27 07:37:36;;;;;;;;;3.00;2.00;;;;;20.86;100.00;100059.19;6301249;22;45388;-88
2022/06/27 07:40:03;;;;;;;;;3.00;3.00;;;;;20.93;100.00;100050.25;6271726;22;47982;-86
2022/06/27 07:42:29;;;;;;;;;2.00;2.00;;;;;21.00;100.00;100043.09;6272757;22;45391;-87
2022/06/27 07:44:55;;;;;;;;;2.00;2.00;;;;;21.13;100.00;100051.88;6301395;22;45518;-88
2022/06/27 07:47:20;;;;;;;;;3.00;1.00;;;;;21.25;100.00;100055.31;6272797;22;45405;-87
2022/06/27 07:49:45;;;;;;;;;2.33;2.33;;;;;21.31;100.00;100069.47;6300445;22;45361;-88
2022/06/27 07:52:12;;;;;;;;;2.00;2.00;;;;;21.38;100.00;100078.31;6272849;22;52644;-88
2022/06/27 07:54:38;;;;;;;;;2.33;2.00;;;;;21.58;100.00;100092.34;6300916;22;45271;-87
2022/06/27 07:57:03;;;;;;;;;2.67;2.00;;;;;21.82;100.00;100083.19;6272502;22;45333;-87
2022/06/27 07:59:29;;;;;;;;;1.33;1.33;;;;;22.01;100.00;100088.28;6301661;22;46089;-88
2022/06/27 08:01:54;;;;;;;;;2.00;2.00;;;;;22.10;100.00;100098.00;6300276;22;45195;-88
2022/06/27 08:04:20;;;;;;;;;1.67;1.67;;;;;22.08;100.00;100105.16;6273529;22;45267;-87
2022/06/27 08:06:49;;;;;;;;;3.00;2.00;;;;;22.06;100.00;100113.16;6273521;22;45569;-88
2022/06/27 08:09:15;;;;;;;;;1.00;1.00;;;;;22.05;100.00;100123.91;6302505;22;46005;-86
2022/06/27 08:11:43;;;;;;;;;1.33;1.33;;;;;22.04;100.00;100112.31;6302331;22;45258;-88
2022/06/27 08:14:13;;;;;;;;;1.00;1.00;;;;;22.12;100.00;100106.88;6302743;22;45396;-88
2022/06/27 08:16:40;;;;;;;;;1.00;1.00;;;;;22.21;100.00;100128.13;6302011;22;45324;-88
2022/06/27 08:19:07;;;;;;;;;2.67;2.67;;;;;22.19;100.00;100129.03;6302768;22;46565;-87
2022/06/27 08:21:34;;;;;;;;;3.00;2.33;;;;;22.03;100.00;100131.06;6301597;22;45467;-88
2022/06/27 08:24:07;;;;;;;;;4.00;2.00;;;;;21.85;100.00;100141.03;6303196;22;45417;-87
2022/06/27 08:26:35;;;;;;;;;2.67;2.00;;;;;21.61;100.00;100159.97;6301045;22;45454;-87
2022/06/27 08:29:02;;;;;;;;;3.67;2.67;;;;;21.39;100.00;100188.66;6273709;22;46668;-88
2022/06/27 08:31:30;;;;;;;;;2.00;2.00;;;;;21.15;100.00;100186.16;6302655;22;45681;-88
2022/06/27 08:34:01;;;;;;;;;1.67;1.67;;;;;20.84;100.00;100120.56;6275085;22;45367;-85
2022/06/27 08:36:30;;;;;;;;;2.33;2.00;;;;;20.51;100.00;100102.09;6301419;22;45415;-85
2022/06/27 08:38:59;;;;;;;;;1.67;1.00;;;;;20.26;100.00;100061.41;6301889;22;46105;-85
2022/06/27 08:41:25;;;;;;;;;2.00;2.00;;;;;20.14;100.00;100039.28;6300306;22;45290;-84
2022/06/27 08:43:55;;;;;;;;;1.00;1.00;;;;;20.19;100.00;100029.47;6303311;22;45584;-84
2022/06/27 08:46:22;;;;;;;;;3.00;3.00;;;;;20.40;100.00;100005.34;6274122;22;45385;-84
2022/06/27 08:48:49;;;;;;;;;3.00;2.00;;;;;20.65;100.00;99994.47;6302191;22;45430;-84
2022/06/27 08:51:14;;;;;;;;;5.00;4.00;;;;;20.72;100.00;99996.19;6301322;22;45475;-84
2022/06/27 08:53:41;;;;;;;;;2.00;2.00;;;;;20.98;100.00;99996.84;6302240;22;45450;-84
2022/06/27 08:56:09;;;;;;;;;3.00;3.00;;;;;21.21;100.00;99987.75;6301715;22;45398;-85
2022/06/27 08:58:35;;;;;;;;;4.67;3.00;;;;;21.43;100.00;99985.72;6302685;22;46238;-84
2022/06/27 09:01:00;;;;;;;;;2.00;2.00;;;;;21.48;100.00;99984.78;6301561;22;45384;-84
2022/06/27 09:03:25;;;;;;;;;2.67;2.67;;;;;21.57;100.00;99981.13;6302058;22;51257;-86
2022/06/27 09:05:57;;;;;;;;;3.00;3.00;;;;;21.73;100.00;99984.44;6273323;22;45516;-85
2022/06/27 09:08:24;;;;;;;;;3.33;3.33;;;;;21.82;100.00;99995.03;6302844;22;46173;-85
2022/06/27 09:10:49;;;;;;;;;4.00;4.00;;;;;21.75;100.00;99991.53;6301521;22;45282;-85
2022/06/27 09:13:17;;;;;;;;;3.33;3.33;;;;;21.74;100.00;100013.81;6303392;22;45509;-85
2022/06/27 09:15:47;;;;;;;;;4.00;2.00;;;;;21.74;100.00;100008.47;6300922;22;45375;-87
2022/06/27 09:18:15;;;;;;;;;3.67;3.00;;;;;21.80;100.00;100007.50;6301934;22;46966;-87
2022/06/27 09:20:46;;;;;;;;;2.67;2.67;;;;;21.88;100.00;100019.00;6300716;22;45360;-88
2022/06/27 09:23:32;;;;;;;;;5.67;3.00;;;;;22.02;100.00;100012.59;6302464;22;45419;-88
2022/06/27 09:25:59;;;;;;;;;2.00;2.00;;;;;22.10;100.00;100012.47;6301102;22;45294;-89
2022/06/27 09:28:37;;;;;;;;;4.00;4.00;;;;;22.20;100.00;100024.81;6274111;22;48385;-88
2022/06/27 09:31:03;;;;;;;;;2.00;2.00;;;;;22.29;100.00;100031.78;6301612;22;45253;-88
2022/06/27 09:33:31;;;;;;;;;2.00;2.00;;;;;22.41;100.00;100028.06;6302935;22;45462;-89
2022/06/27 09:35:56;;;;;;;;;2.00;2.00;;;;;22.50;100.00;100026.13;6302001;22;45446;-88
2022/06/27 09:38:21;;;;;;;;;2.00;2.00;;;;;22.59;100.00;100007.28;6274552;22;47024;-89
2022/06/27 09:40:47;;;;;;;;;1.33;1.33;;;;;22.73;100.00;100016.91;6301192;22;45328;-89
2022/06/27 09:43:16;;;;;;;;;2.00;1.67;;;;;22.93;100.00;100031.72;6303627;22;45331;-89
2022/06/27 09:45:42;;;;;;;;;2.00;2.00;;;;;23.25;100.00;100075.72;6274399;22;45222;-89
2022/06/27 09:48:09;;;;;;;;;4.67;2.00;;;;;23.59;100.00;100059.97;6302610;22;45847;-89
2022/06/27 09:50:39;;;;;;;;;2.00;1.00;;;;;23.70;100.00;100075.81;6300659;22;45426;-89
2022/06/27 09:53:05;;;;;;;;;1.67;1.67;;;;;23.71;100.00;100064.22;6302222;22;45266;-90
2022/06/27 09:55:30;;;;;;;;;0.67;0.67;;;;;23.86;100.00;100100.50;6302059;22;45333;-89
2022/06/27 09:57:56;;;;;;;;;0.67;0.67;;;;;24.33;100.00;100088.78;6302536;22;46369;-89
2022/06/27 10:00:23;;;;;;;;;1.00;1.00;;;;;25.91;100.00;100073.16;6302690;22;45321;-89
2022/06/27 10:02:49;;;;;;;;;1.33;1.33;;;;;28.15;100.00;100053.97;6302764;22;45351;-89
2022/06/27 10:05:16;;;;;;;;;1.00;0.00;;;;;30.32;100.00;100090.63;6301996;22;45335;-89
2022/06/27 10:07:51;;;;;;;;;1.00;0.00;;;;;31.62;100.00;100221.63;6302411;22;46206;-90
2022/06/27 10:10:17;;;;;;;;;0.00;0.00;;;;;31.65;97.29;100273.84;6302592;22;45376;-90
2022/06/27 10:12:55;;;;;;;;;0.00;0.00;;;;;32.94;96.51;100277.94;6275125;22;45388;-89
2022/06/27 10:15:22;;;;;;;;;0.33;0.33;;;;;34.60;94.08;100320.88;6302500;22;45435;-89
2022/06/27 10:17:47;;;;;;;;;0.33;0.33;;;;;36.19;89.29;101098.03;6300685;22;45527;-90
2022/06/27 10:20:19;;;;;;;;;0.00;0.00;;;;;37.61;84.95;101213.66;6272404;22;45621;-91
2022/06/27 10:22:47;;;;;;;;;0.00;0.00;;;;;38.46;78.84;101307.91;6273678;22;45544;-93
2022/06/27 10:25:28;;;;;;;;;1.00;1.00;;;;;39.02;74.65;101349.16;6304039;22;45230;-94
2022/06/27 10:28:14;;;;;;;;;0.00;0.00;;;;;39.97;72.29;101359.16;6303316;22;45686;-91
2022/06/27 10:31:00;;;;;;;;;0.00;0.00;;;;;41.26;67.60;101376.56;6274847;22;45254;-92
2022/06/27 10:33:25;;;;;;;;;0.00;0.00;;;;;42.48;68.77;101379.97;6305314;22;45285;-96
2022/06/27 10:38:43;;;;;;;;;0.00;0.00;;;;;42.93;62.61;101401.16;6306380;22;45989;-94
2022/06/27 10:41:31;;;;;;;;;0.00;0.00;;;;;44.97;61.86;101405.63;6303510;22;45317;-94
2022/06/27 10:43:59;;;;;;;;;1.67;1.67;;;;;46.07;58.87;101412.06;6303852;22;45270;-96
2022/06/27 10:46:24;;;;;;;;;1.33;0.00;;;;;47.38;59.74;101407.56;6304609;22;45448;-93
2022/06/27 10:48:58;;;;;;;;;0.33;0.33;;;;;48.69;56.33;101419.88;6308602;22;49963;-93
2022/06/27 10:51:24;;;;;;;;;0.00;0.00;;;;;48.32;53.44;101434.00;6276457;22;45286;-94
2022/06/27 10:53:51;;;;;;;;;0.00;0.00;;;;;48.17;48.29;101425.41;6310889;22;45229;-95
2022/06/27 10:56:26;;;;;;;;;0.00;0.00;;;;;48.84;51.57;101425.69;6283282;22;45460;-96
2022/06/27 10:58:52;;;;;;;;;0.33;0.00;;;;;48.64;51.05;101424.06;6285900;22;46413;-96
2022/06/27 11:01:19;;;;;;;;;1.67;0.00;;;;;47.82;47.58;101423.41;6277531;22;45922;-93
2022/06/27 11:03:46;;;;;;;;;0.00;0.00;;;;;47.92;48.23;101437.19;6278074;22;45567;-94
2022/06/27 11:06:13;;;;;;;;;0.00;0.00;;;;;48.55;48.79;101426.97;6278708;22;45570;-92
2022/06/27 11:08:40;;;;;;;;;1.67;0.00;;;;;49.64;47.77;101431.69;6281373;22;47282;-96
2022/06/27 11:11:07;;;;;;;;;0.00;0.00;;;;;50.73;45.30;101436.13;6283353;22;45352;-96
2022/06/27 11:13:43;;;;;;;;;0.67;0.67;;;;;51.77;44.49;101433.13;6283660;22;45344;-96
2022/06/27 11:16:33;;;;;;;;;0.33;0.00;;;;;52.84;41.65;101426.41;6279211;22;45286;-96
2022/06/27 11:19:01;;;;;;;;;0.00;0.00;;;;;53.21;39.53;101419.03;6278212;22;47519;-96
2022/06/27 11:21:38;;;;;;;;;0.00;0.00;;;;;52.43;37.58;101439.06;6284917;22;46214;-96
2022/06/27 11:24:09;;;;;;;;;0.00;0.00;;;;;51.66;36.03;101431.66;6287838;22;45433;-95
2022/06/27 11:26:38;;;;;;;;;0.00;0.00;;;;;51.41;37.56;101423.47;6313637;22;45250;-96
2022/06/27 11:32:21;;;;;;;;;0.00;0.00;;;;;53.33;34.02;101434.28;6308905;22;45380;-92
2022/06/27 11:34:52;;;;;;;;;0.00;0.00;;;;;53.84;34.73;101428.66;6236171;22;45480;-92
2022/06/27 11:37:19;;;;;;;;;0.00;0.00;;;;;54.34;33.17;101426.78;6208597;22;45856;-94
2022/06/27 11:40:06;;;;;;;;;0.00;0.00;;;;;54.89;33.49;101431.53;6209705;22;48443;-94
2022/06/27 11:42:33;;;;;;;;;0.00;0.00;;;;;55.47;34.00;101423.59;6214329;22;45722;-94
2022/06/27 11:45:08;;;;;;;;;0.00;0.00;;;;;56.13;33.50;101425.69;6238927;22;45379;-92
2022/06/27 11:47:35;;;;;;;;;0.00;0.00;;;;;56.71;33.47;101431.50;6213842;22;45422;-92
2022/06/27 11:50:03;;;;;;;;;0.00;0.00;;;;;56.39;32.94;101421.03;6240764;22;46214;-94
2022/06/27 11:52:48;;;;;;;;;0.00;0.00;;;;;54.97;31.06;101424.00;6238933;22;45434;-93
2022/06/27 11:55:19;;;;;;;;;0.00;0.00;;;;;55.29;33.07;101429.88;6240473;22;45437;-92
2022/06/27 11:57:49;;;;;;;;;0.00;0.00;;;;;56.11;32.57;101433.47;6213287;22;45311;-93
2022/06/27 12:00:20;;;;;;;;;0.00;0.00;;;;;56.77;32.13;101434.50;6213167;22;47085;-90
2022/06/27 12:03:10;;;;;;;;;0.00;0.00;;;;;57.40;31.29;101425.38;6239141;22;45415;-92
2022/06/27 12:05:39;;;;;;;;;0.00;0.00;;;;;57.92;30.66;101422.28;6211807;22;45472;-91
2022/06/27 12:08:09;;;;;;;;;0.00;0.00;;;;;58.41;29.88;101423.41;6212791;22;45344;-92
2022/06/27 12:10:45;;;;;;;;;0.00;0.00;;;;;58.81;29.18;101426.78;6274365;22;45487;-88
2022/06/27 12:13:14;;;;;;;;;0.00;0.00;;;;;57.87;28.47;101427.75;6304567;22;45734;-92
2022/06/27 12:15:43;;;;;;;;;0.00;0.00;;;;;57.93;28.51;101423.13;6305516;22;45253;-92
2022/06/27 12:18:12;;;;;;;;;0.00;0.00;;;;;57.14;27.18;101423.38;6304246;22;45317;-91
2022/06/27 12:20:38;;;;;;;;;0.00;0.00;;;;;55.69;28.61;101439.41;6305703;22;45627;-92
2022/06/27 12:23:04;;;;;;;;;0.33;0.00;;;;;54.97;28.99;101440.88;6307261;22;45398;-91
2022/06/27 12:25:29;;;;;;;;;0.00;0.00;;;;;55.79;27.70;101441.75;6304685;22;45416;-92
2022/06/27 12:27:55;;;;;;;;;0.00;0.00;;;;;55.61;27.88;101432.06;6303946;22;45211;-92
2022/06/27 12:30:20;;;;;;;;;0.00;0.00;;;;;55.88;27.14;101442.41;6305014;22;45262;-92
2022/06/27 12:32:45;;;;;;;;;0.00;0.00;;;;;56.33;27.98;101443.59;6303433;22;45401;-92
2022/06/27 12:35:12;;;;;;;;;0.00;0.00;;;;;55.32;27.86;101445.47;6303442;22;45200;-93
2022/06/27 12:37:38;;;;;;;;;0.00;0.00;;;;;54.90;27.73;101446.47;6303865;22;45364;-91
2022/06/27 12:40:08;;;;;;;;;0.00;0.00;;;;;55.65;27.55;101444.59;6303331;22;45422;-93
2022/06/27 12:42:34;;;;;;;;;0.00;0.00;;;;;56.41;25.44;101446.16;6276234;22;45326;-91
2022/06/27 12:45:00;;;;;;;;;1.00;1.00;;;;;57.05;26.89;101452.97;6303760;22;45471;-91
2022/06/27 12:47:26;;;;;;;;;1.00;0.00;;;;;57.86;27.84;101450.56;6302406;22;45766;-93
2022/06/27 12:49:51;;;;;;;;;0.00;0.00;;;;;58.75;24.93;101455.97;6276074;22;47221;-90
2022/06/27 12:52:17;;;;;;;;;3.00;3.00;;;;;59.26;25.63;101455.66;6275078;22;45555;-93
2022/06/27 12:54:43;;;;;;;;;6.33;6.00;;;;;59.58;23.94;101460.97;6303831;22;45305;-91
2022/06/27 12:57:09;;;;;;;;;0.00;0.00;;;;;58.84;25.85;101451.75;6303584;22;45298;-92
2022/06/27 12:59:34;;;;;;;;;0.33;0.33;;;;;58.45;25.26;101450.09;6302899;22;46429;-90
2022/06/27 13:02:00;;;;;;;;;0.33;0.33;;;;;57.52;25.70;101450.88;6303369;22;45790;-94
2022/06/27 13:04:25;;;;;;;;;0.00;0.00;;;;;54.59;26.10;101446.78;6275720;22;45320;-92
2022/06/27 13:06:51;;;;;;;;;0.00;0.00;;;;;51.45;26.27;101450.00;6303310;22;45317;-91
2022/06/27 13:09:16;;;;;;;;;0.00;0.00;;;;;49.36;27.99;101440.41;6277280;22;47800;-93
2022/06/27 13:11:42;;;;;;;;;0.00;0.00;;;;;49.42;28.46;101444.44;6275221;22;53034;-92
2022/06/27 13:14:08;;;;;;;;;0.00;0.00;;;;;49.49;29.00;101451.06;6305516;22;45387;-91
2022/06/27 13:16:34;;;;;;;;;0.00;0.00;;;;;48.33;28.22;101459.88;6304462;22;45456;-93
2022/06/27 13:18:59;;;;;;;;;0.00;0.00;;;;;47.53;29.10;101463.44;6305231;22;45304;-92
2022/06/27 13:21:25;;;;;;;;;0.00;0.00;;;;;47.08;30.12;101453.13;6303991;22;45268;-91
2022/06/27 13:23:51;;;;;;;;;0.00;0.00;;;;;48.22;29.92;101449.94;6305331;22;50212;-93
2022/06/27 13:26:16;;;;;;;;;0.00;0.00;;;;;47.07;29.66;101464.38;6304478;22;45717;-89
2022/06/27 13:28:42;;;;;;;;;0.00;0.00;;;;;45.16;29.46;101464.88;6276196;22;47952;-89
2022/06/27 13:31:07;;;;;;;;;0.00;0.00;;;;;43.50;30.10;101462.75;6275874;22;45522;-91
2022/06/27 13:33:33;;;;;;;;;0.00;0.00;;;;;43.57;31.83;101465.84;6275654;22;45700;-90
2022/06/27 13:35:58;;;;;;;;;0.00;0.00;;;;;45.84;31.64;101464.22;6274689;22;45332;-90
2022/06/27 13:38:23;;;;;;;;;0.00;0.00;;;;;47.12;31.51;101470.31;6304525;22;46634;-92
2022/06/27 13:40:49;;;;;;;;;0.00;0.00;;;;;48.55;31.14;101460.38;6275912;22;48402;-93
2022/06/27 13:43:14;;;;;;;;;0.33;0.00;;;;;48.73;30.48;101477.88;6304701;22;45388;-93
2022/06/27 13:45:40;;;;;;;;;0.00;0.00;;;;;48.46;29.75;101488.13;6274415;22;52722;-92
2022/06/27 13:48:07;;;;;;;;;0.00;0.00;;;;;46.85;30.28;101480.41;6275607;22;48254;-92
2022/06/27 13:50:34;;;;;;;;;0.00;0.00;;;;;46.41;31.35;101487.47;6301123;22;45368;-90
2022/06/27 13:53:03;;;;;;;;;0.00;0.00;;;;;48.11;30.81;101484.44;6302738;22;45296;-92
2022/06/27 13:55:29;;;;;;;;;0.00;0.00;;;;;48.16;30.08;101484.84;6275138;22;45411;-90
2022/06/27 13:57:54;;;;;;;;;0.00;0.00;;;;;48.45;30.21;101479.97;6302637;22;45509;-92
2022/06/27 14:00:20;;;;;;;;;0.00;0.00;;;;;47.46;29.70;101492.91;6303878;22;45250;-90
2022/06/27 14:02:46;;;;;;;;;0.67;0.00;;;;;45.73;30.10;101484.59;6273947;22;45383;-90
2022/06/27 14:05:11;;;;;;;;;0.00;0.00;;;;;44.10;30.21;101481.53;6274145;22;45371;-91
2022/06/27 14:07:37;;;;;;;;;0.00;0.00;;;;;42.66;31.36;101482.41;6302800;22;45374;-91
2022/06/27 14:10:04;;;;;;;;;0.00;0.00;;;;;42.95;33.17;101486.56;6303311;22;45242;-91
2022/06/27 14:12:29;;;;;;;;;0.00;0.00;;;;;43.92;32.62;101486.81;6302812;22;45164;-92
2022/06/27 14:14:55;;;;;;;;;0.00;0.00;;;;;43.64;32.47;101490.06;6274559;22;45267;-90
2022/06/27 14:17:22;;;;;;;;;0.00;0.00;;;;;43.17;31.65;101488.41;6302301;22;45429;-90
2022/06/27 14:19:47;;;;;;;;;0.00;0.00;;;;;43.79;33.24;101486.16;6274414;22;45469;-90
2022/06/27 14:22:13;;;;;;;;;0.00;0.00;;;;;44.70;32.24;101484.69;6274194;22;45806;-91
2022/06/27 14:24:38;;;;;;;;;0.00;0.00;;;;;45.20;32.56;101495.94;6302628;22;45328;-92
2022/06/27 14:27:04;;;;;;;;;0.00;0.00;;;;;45.08;32.26;101490.50;6274532;22;47148;-88
2022/06/27 14:29:29;;;;;;;;;0.00;0.00;;;;;45.41;32.39;101493.06;6302316;22;45435;-91
2022/06/27 14:31:55;;;;;;;;;0.00;0.00;;;;;46.45;30.90;101488.88;6302932;22;45267;-92
2022/06/27 14:34:21;;;;;;;;;0.00;0.00;;;;;46.96;31.88;101479.31;6303126;22;45261;-91
2022/06/27 14:36:46;;;;;;;;;0.00;0.00;;;;;48.47;31.16;101491.78;6273622;22;47264;-92
2022/06/27 14:39:13;;;;;;;;;0.00;0.00;;;;;48.66;30.00;101481.50;6303268;22;45235;-93
2022/06/27 14:41:42;;;;;;;;;0.67;0.00;;;;;46.86;29.96;101488.59;6302284;22;45320;-90
2022/06/27 14:44:09;;;;;;;;;0.00;0.00;;;;;44.63;30.20;101494.56;6303041;22;45411;-91
2022/06/27 14:46:35;;;;;;;;;0.00;0.00;;;;;42.84;31.43;101501.22;6301431;22;46372;-91
2022/06/27 14:49:00;;;;;;;;;0.00;0.00;;;;;41.46;32.78;101489.78;6300236;22;45369;-92
2022/06/27 14:51:26;;;;;;;;;0.00;0.00;;;;;40.44;32.92;101490.59;6274079;22;45317;-91
2022/06/27 14:53:51;;;;;;;;;0.00;0.00;;;;;39.51;33.69;101503.31;6302167;22;45275;-90
2022/06/27 14:56:17;;;;;;;;;0.00;0.00;;;;;38.47;34.06;101503.44;6272409;22;47348;-92
2022/06/27 14:58:42;;;;;;;;;0.00;0.00;;;;;37.49;34.41;101498.16;6273910;22;45266;-92
2022/06/27 15:01:07;;;;;;;;;0.00;0.00;;;;;36.62;35.46;101504.69;6274404;22;45306;-89
2022/06/27 15:03:32;;;;;;;;;0.00;0.00;;;;;35.89;36.41;101504.75;6302274;22;49407;-89
2022/06/27 15:05:58;;;;;;;;;0.00;0.00;;;;;35.18;37.05;101499.03;6302263;22;63575;-90
2022/06/27 15:08:23;;;;;;;;;0.00;0.00;;;;;34.62;37.13;101499.75;6302462;22;45243;-90
2022/06/27 15:13:32;;;;;;;;;0.00;0.00;;;;;33.89;38.19;101496.44;6307733;22;45304;-90
2022/06/27 15:15:58;;;;;;;;;0.00;0.00;;;;;33.58;38.43;101497.69;6306372;22;45223;-91
2022/06/27 15:18:23;;;;;;;;;0.00;0.00;;;;;33.24;38.88;101502.69;6283770;22;45322;-91
2022/06/27 15:20:49;;;;;;;;;0.00;0.00;;;;;32.91;39.33;101487.56;6280470;22;45365;-90
2022/06/27 15:23:14;;;;;;;;;0.00;0.00;;;;;32.49;39.77;101492.69;6305943;22;45383;-91
2022/06/27 15:25:39;;;;;;;;;0.00;0.00;;;;;32.00;40.41;101496.13;6275644;22;48681;-91
2022/06/27 15:28:06;;;;;;;;;0.00;0.00;;;;;31.61;41.31;101503.72;6303596;22;54227;-89
2022/06/27 15:30:34;;;;;;;;;0.00;0.00;;;;;31.35;41.74;101505.38;6304438;22;45278;-90
2022/06/27 15:32:59;;;;;;;;;0.00;0.00;;;;;31.10;41.92;101501.59;6275648;22;45471;-92
2022/06/27 15:35:24;;;;;;;;;0.00;0.00;;;;;30.88;41.53;101501.28;6275345;22;48252;-92
2022/06/27 15:37:50;;;;;;;;;0.00;0.00;;;;;30.69;42.07;101503.66;6303756;22;45359;-91
2022/06/27 15:40:15;;;;;;;;;0.00;0.00;;;;;30.61;41.79;101501.16;6303730;22;45369;-90
2022/06/27 15:42:40;;;;;;;;;0.00;0.00;;;;;30.52;42.16;101488.75;6303908;22;45321;-92
2022/06/27 15:45:07;;;;;;;;;0.00;0.00;;;;;30.41;42.97;101500.75;6304104;22;46403;-89
2022/06/27 15:47:33;;;;;;;;;0.33;0.00;;;;;30.25;43.36;101508.38;6275172;22;45255;-90
2022/06/27 15:49:58;;;;;;;;;0.00;0.00;;;;;29.98;43.96;101505.44;6302411;22;45723;-91
2022/06/27 15:52:24;;;;;;;;;0.00;0.00;;;;;29.77;43.92;101502.31;6274494;22;47514;-90
2022/06/27 15:54:49;;;;;;;;;0.00;0.00;;;;;29.51;44.89;101496.56;6274240;22;50156;-91
2022/06/27 15:57:15;;;;;;;;;0.00;0.00;;;;;29.31;44.82;101507.84;6275031;22;50629;-91
2022/06/27 15:59:44;;;;;;;;;0.00;0.00;;;;;29.18;45.03;101505.41;6303781;22;45318;-89
2022/06/27 16:02:09;;;;;;;;;0.00;0.00;;;;;29.11;44.72;101504.66;6302535;22;45364;-92
2022/06/27 16:04:34;;;;;;;;;0.00;0.00;;;;;29.11;45.68;101507.34;6275669;22;47975;-90
2022/06/27 16:07:00;;;;;;;;;0.00;0.00;;;;;29.05;44.96;101502.03;6302572;22;45418;-89
2022/06/27 16:09:25;;;;;;;;;0.00;0.00;;;;;28.95;45.16;101501.34;6301873;22;45278;-92
2022/06/27 16:11:51;;;;;;;;;1.67;0.33;;;;;28.82;45.61;101498.00;6302740;22;45303;-89
2022/06/27 16:14:17;;;;;;;;;0.00;0.00;;;;;28.70;46.09;101511.72;6275138;22;47220;-89
2022/06/27 16:16:42;;;;;;;;;0.00;0.00;;;;;28.51;45.66;101502.16;6302105;22;45140;-90
2022/06/27 16:19:07;;;;;;;;;0.00;0.00;;;;;28.29;45.24;101501.63;6303091;22;45207;-90
2022/06/27 16:21:33;;;;;;;;;0.00;0.00;;;;;28.18;45.87;101518.00;6274418;22;45547;-89
2022/06/27 16:23:58;;;;;;;;;0.00;0.00;;;;;27.98;46.15;101508.44;6302777;22;46647;-90
2022/06/27 16:26:24;;;;;;;;;0.00;0.00;;;;;27.83;47.00;101509.59;6302044;22;45334;-91
2022/06/27 16:28:49;;;;;;;;;0.00;0.00;;;;;27.74;46.45;101515.97;6302634;22;45691;-89
2022/06/27 16:33:58;;;;;;;;;0.00;0.00;;;;;27.45;47.38;101512.75;6303136;22;45349;-89
2022/06/27 16:36:24;;;;;;;;;0.00;0.00;;;;;27.34;46.93;101505.72;6301589;22;50112;-92
2022/06/27 16:38:49;;;;;;;;;0.00;0.00;;;;;27.27;47.32;101508.50;6274215;22;45243;-91
2022/06/27 16:41:14;;;;;;;;;0.00;0.00;;;;;27.21;46.97;101504.09;6273948;22;45256;-89
2022/06/27 16:43:40;;;;;;;;;1.00;0.00;;;;;27.21;48.03;101510.38;6304157;22;55005;-89
2022/06/27 16:46:05;;;;;;;;;0.00;0.00;;;;;27.14;47.95;101508.66;6302880;22;45482;-89
2022/06/27 16:48:31;;;;;;;;;0.00;0.00;;;;;27.07;48.34;101510.50;6277368;22;45403;-91
2022/06/27 16:51:00;;;;;;;;;0.00;0.00;;;;;26.99;48.36;101507.91;6275354;22;45496;-91
2022/06/27 16:53:29;;;;;;;;;0.00;0.00;;;;;26.91;47.66;101514.28;6304286;22;45652;-93
2022/06/27 16:55:55;;;;;;;;;0.00;0.00;;;;;26.86;48.83;101507.16;6276375;22;45428;-90
2022/06/27 16:58:20;;;;;;;;;0.00;0.00;;;;;26.77;48.47;101508.19;6304611;22;45307;-93
2022/06/27 17:00:46;;;;;;;;;0.00;0.00;;;;;26.73;47.65;101518.97;6303239;22;45194;-91
2022/06/27 17:03:13;;;;;;;;;0.00;0.00;;;;;26.64;48.36;101514.59;6303807;22;46123;-92
2022/06/27 17:05:40;;;;;;;;;0.00;0.00;;;;;26.58;48.83;101514.63;6305910;22;45537;-94
2022/06/27 17:08:07;;;;;;;;;0.00;0.00;;;;;26.51;48.71;101520.09;6303932;22;45314;-92
2022/06/27 17:10:33;;;;;;;;;0.00;0.00;;;;;26.47;49.19;101520.16;6303304;22;45369;-92
2022/06/27 17:13:00;;;;;;;;;0.00;0.00;;;;;26.43;49.01;101517.47;6274324;22;47154;-91
2022/06/27 17:15:26;;;;;;;;;1.00;1.00;;;;;26.40;49.24;101503.09;6304203;22;45328;-91
2022/06/27 17:17:51;;;;;;;;;0.00;0.00;;;;;26.44;49.09;101513.00;6304036;22;45277;-92
2022/06/27 17:20:16;;;;;;;;;0.00;0.00;;;;;26.44;49.14;101511.16;6303920;22;45291;-91
2022/06/27 17:22:42;;;;;;;;;1.33;0.00;;;;;26.47;48.81;101526.41;6274329;22;47061;-91
2022/06/27 17:25:08;;;;;;;;;1.00;0.00;;;;;26.40;49.51;101528.22;6304185;22;45395;-92